Time;durP1;ratioP1;P1;durP2;ratioP2;P2;SDS_P1;SDS_P2;PMS_P1;PMS_P2;Temp;Humidity;BMP_temperature;BMP_pressure;BME280_temperature;BME280_humidity;BME280_pressure;Samples;Min_cycle;Max_cycle;Signal;HPM_P1;HPM_P2
2023/07/28 00:02:06;;;;;;;9.90;3.63;;;17.80;99.90;;;;;;5040009;28;20033;-70
2023/07/28 00:04:34;;;;;;;11.18;3.67;;;17.70;99.90;;;;;;5075269;28;20102;-70
2023/07/28 00:07:00;;;;;;;8.95;3.20;;;17.80;99.90;;;;;;5042476;28;21409;-70
2023/07/28 00:09:26;;;;;;;9.07;3.70;;;17.80;99.90;;;;;;5041546;28;20075;-70
2023/07/28 00:11:51;;;;;;;9.77;3.38;;;17.70;99.90;;;;;;5035738;28;20435;-70
2023/07/28 00:14:17;;;;;;;9.30;3.50;;;17.80;99.90;;;;;;5042572;28;20498;-70
2023/07/28 00:16:43;;;;;;;8.95;3.88;;;17.70;99.90;;;;;;5024146;28;20040;-70
2023/07/28 00:19:08;;;;;;;8.88;3.95;;;17.80;99.90;;;;;;5034440;28;20575;-70
2023/07/28 00:21:34;;;;;;;7.45;3.22;;;17.70;99.90;;;;;;5040738;28;20045;-70
2023/07/28 00:23:59;;;;;;;8.40;3.20;;;17.70;99.90;;;;;;5039373;28;20395;-70
2023/07/28 00:26:25;;;;;;;12.57;3.83;;;17.70;99.90;;;;;;5042893;28;20126;-70
2023/07/28 00:28:50;;;;;;;8.77;3.30;;;17.70;99.90;;;;;;5040757;28;20045;-70
2023/07/28 00:31:16;;;;;;;8.50;3.17;;;17.70;99.90;;;;;;5073078;28;20047;-70
2023/07/28 00:33:42;;;;;;;9.73;3.22;;;17.70;99.90;;;;;;5042025;28;20045;-70
2023/07/28 00:36:08;;;;;;;7.43;3.28;;;17.70;99.90;;;;;;5055818;28;20110;-70
2023/07/28 00:38:33;;;;;;;9.80;3.65;;;17.80;99.90;;;;;;5039655;28;20036;-70
2023/07/28 00:40:59;;;;;;;10.85;3.33;;;17.70;99.90;;;;;;5041731;28;20029;-70
2023/07/28 00:43:24;;;;;;;11.23;3.50;;;17.70;99.90;;;;;;5043269;28;20482;-70
2023/07/28 00:45:50;;;;;;;9.00;3.75;;;17.70;99.90;;;;;;5045855;28;20044;-70
2023/07/28 00:48:17;;;;;;;8.88;3.15;;;17.70;99.90;;;;;;5045688;28;20052;-70
2023/07/28 00:50:46;;;;;;;9.15;3.70;;;17.80;99.90;;;;;;5044234;28;20032;-70
2023/07/28 00:53:12;;;;;;;8.10;3.75;;;17.70;99.90;;;;;;5043876;28;20247;-70
2023/07/28 00:55:38;;;;;;;9.80;4.28;;;17.70;99.90;;;;;;5044721;28;20383;-70
2023/07/28 00:58:04;;;;;;;7.00;3.20;;;17.70;99.90;;;;;;5024185;28;20179;-70
2023/07/28 01:00:29;;;;;;;9.90;3.42;;;17.70;99.90;;;;;;5039935;28;20785;-70
2023/07/28 01:02:56;;;;;;;10.32;4.40;;;17.70;99.90;;;;;;5040231;28;20044;-70
2023/07/28 01:05:32;;;;;;;10.02;4.07;;;17.80;99.90;;;;;;5039195;28;20037;-70
2023/07/28 01:08:18;;;;;;;14.32;3.70;;;17.80;99.90;;;;;;5040002;28;20044;-70
2023/07/28 01:10:44;;;;;;;9.07;3.50;;;17.70;99.90;;;;;;5072348;28;20036;-70
2023/07/28 01:13:10;;;;;;;10.07;3.17;;;17.70;99.90;;;;;;5045185;28;20486;-70
2023/07/28 01:15:36;;;;;;;9.90;3.75;;;17.70;99.90;;;;;;5040906;28;20044;-70
2023/07/28 01:18:01;;;;;;;9.80;4.40;;;17.70;99.90;;;;;;5036595;28;20044;-70
2023/07/28 01:20:31;;;;;;;10.07;4.03;;;17.70;99.90;;;;;;5040466;28;20056;-70
2023/07/28 01:23:13;;;;;;;9.82;4.10;;;17.70;99.90;;;;;;5039451;28;20037;-70
2023/07/28 01:26:10;;;;;;;10.52;4.30;;;17.70;99.90;;;;;;5041533;28;20072;-70
2023/07/28 01:28:37;;;;;;;13.13;3.97;;;17.70;99.90;;;;;;5039883;28;20044;-70
2023/07/28 01:31:04;;;;;;;10.77;3.95;;;17.70;99.90;;;;;;5072066;28;20025;-70
2023/07/28 01:33:30;;;;;;;9.27;4.30;;;17.70;99.90;;;;;;5034023;28;20499;-70
2023/07/28 01:35:55;;;;;;;8.93;4.05;;;17.70;99.90;;;;;;5020603;28;20037;-70
2023/07/28 01:38:21;;;;;;;11.82;4.15;;;17.70;99.90;;;;;;5037834;28;20624;-70
2023/07/28 01:40:47;;;;;;;12.68;3.75;;;17.70;99.90;;;;;;5036529;28;20529;-70
2023/07/28 01:43:13;;;;;;;8.48;3.67;;;17.70;99.90;;;;;;5036919;28;20040;-70
2023/07/28 01:45:38;;;;;;;11.75;4.18;;;17.80;99.90;;;;;;5055140;28;20057;-71
2023/07/28 01:48:05;;;;;;;12.85;4.20;;;17.70;99.90;;;;;;5045016;28;20067;-70
2023/07/28 01:50:30;;;;;;;10.63;3.40;;;17.70;99.90;;;;;;5042022;28;20048;-70
2023/07/28 01:52:56;;;;;;;12.23;4.15;;;17.70;99.90;;;;;;5038921;28;20055;-70
2023/07/28 01:55:21;;;;;;;8.93;3.88;;;17.80;99.90;;;;;;5020218;28;20061;-70
2023/07/28 01:58:02;;;;;;;8.43;3.65;;;17.70;99.90;;;;;;5072544;28;20500;-70
2023/07/28 02:00:28;;;;;;;12.07;3.97;;;17.70;99.90;;;;;;5035998;28;20036;-70
2023/07/28 02:02:54;;;;;;;9.30;4.03;;;17.70;99.90;;;;;;5037963;28;20033;-70
2023/07/28 02:05:20;;;;;;;14.73;4.25;;;17.70;99.90;;;;;;5051667;28;20474;-70
2023/07/28 02:07:46;;;;;;;9.25;3.33;;;17.70;99.90;;;;;;5039636;28;20064;-70
2023/07/28 02:10:11;;;;;;;10.88;3.80;;;17.70;99.90;;;;;;5067417;28;20099;-70
2023/07/28 02:12:38;;;;;;;10.23;3.70;;;17.70;99.90;;;;;;5023325;28;20146;-70
2023/07/28 02:15:05;;;;;;;9.00;3.95;;;17.70;99.90;;;;;;5039304;28;20128;-70
2023/07/28 02:17:31;;;;;;;12.90;4.70;;;17.70;99.90;;;;;;5037189;28;21488;-70
2023/07/28 02:19:57;;;;;;;9.73;4.28;;;17.70;99.90;;;;;;5037133;28;20025;-70
2023/07/28 02:22:22;;;;;;;14.50;4.43;;;17.70;99.90;;;;;;5038573;28;20501;-70
2023/07/28 02:24:48;;;;;;;16.02;4.55;;;17.70;99.90;;;;;;5038276;28;20135;-70
2023/07/28 02:27:13;;;;;;;12.93;3.70;;;17.70;99.90;;;;;;5039706;28;20569;-70
2023/07/28 02:29:39;;;;;;;12.10;3.45;;;17.70;99.90;;;;;;5038984;28;20533;-70
2023/07/28 02:32:05;;;;;;;11.48;5.03;;;17.70;99.90;;;;;;5037176;28;20484;-70
2023/07/28 02:34:30;;;;;;;14.93;4.40;;;17.70;99.90;;;;;;5068681;28;20515;-70
2023/07/28 02:36:57;;;;;;;15.93;4.47;;;17.70;99.90;;;;;;5039234;28;20041;-70
2023/07/28 02:39:23;;;;;;;13.50;4.50;;;17.70;99.90;;;;;;5021638;28;20040;-70
2023/07/28 02:41:48;;;;;;;10.63;3.83;;;17.70;99.90;;;;;;5041438;28;20032;-70
2023/07/28 02:44:14;;;;;;;11.48;4.10;;;17.70;99.90;;;;;;5040351;28;20049;-70
2023/07/28 02:46:39;;;;;;;9.00;3.85;;;17.70;99.90;;;;;;5059607;28;20041;-70
2023/07/28 02:49:05;;;;;;;7.85;3.92;;;17.70;99.90;;;;;;5040909;28;20082;-70
2023/07/28 02:51:31;;;;;;;9.65;3.60;;;17.70;99.90;;;;;;5041547;28;20071;-70
2023/07/28 02:53:56;;;;;;;10.27;4.20;;;17.70;99.90;;;;;;5043588;28;20495;-70
2023/07/28 02:56:22;;;;;;;8.00;3.97;;;17.70;99.90;;;;;;5042879;28;20511;-70
2023/07/28 02:58:48;;;;;;;9.25;3.72;;;17.80;99.90;;;;;;5040989;28;20043;-70
2023/07/28 03:01:14;;;;;;;12.15;4.45;;;17.70;99.90;;;;;;5074945;28;20445;-70
2023/07/28 03:03:40;;;;;;;12.07;3.67;;;17.70;99.90;;;;;;5039307;28;20035;-70
2023/07/28 03:06:05;;;;;;;10.93;3.95;;;17.70;99.90;;;;;;5042719;28;20124;-70
2023/07/28 03:08:31;;;;;;;11.63;3.97;;;17.70;99.90;;;;;;5043952;28;20056;-70
2023/07/28 03:11:02;;;;;;;13.35;4.10;;;17.70;99.90;;;;;;5025333;28;20067;-70
2023/07/28 03:13:28;;;;;;;10.80;3.92;;;17.70;99.90;;;;;;5042341;28;20072;-70
2023/07/28 03:15:54;;;;;;;12.15;3.88;;;17.60;99.90;;;;;;5040354;28;20044;-70
2023/07/28 03:18:20;;;;;;;11.73;4.20;;;17.70;99.90;;;;;;5042546;28;20033;-70
2023/07/28 03:20:46;;;;;;;11.18;3.80;;;17.70;99.90;;;;;;5039445;28;20532;-70
2023/07/28 03:23:12;;;;;;;11.43;3.97;;;17.70;99.90;;;;;;5039417;28;20037;-70
2023/07/28 03:25:38;;;;;;;10.73;4.03;;;17.70;99.90;;;;;;5042370;28;20070;-70
2023/07/28 03:28:03;;;;;;;9.27;3.67;;;17.70;99.90;;;;;;5043818;28;20395;-70
2023/07/28 03:30:29;;;;;;;10.15;4.45;;;17.70;99.90;;;;;;5042220;28;20487;-70
2023/07/28 03:32:55;;;;;;;9.52;3.45;;;17.70;99.90;;;;;;5071757;28;20040;-70
2023/07/28 03:35:20;;;;;;;8.27;3.83;;;17.70;99.90;;;;;;5042133;28;20438;-70
2023/07/28 03:37:46;;;;;;;9.80;4.38;;;17.60;99.90;;;;;;5041421;28;20136;-70
2023/07/28 03:40:11;;;;;;;11.85;3.97;;;17.70;99.90;;;;;;5042488;28;20569;-70
2023/07/28 03:42:37;;;;;;;12.32;3.97;;;17.70;99.90;;;;;;5035328;28;20044;-70
2023/07/28 03:45:03;;;;;;;12.88;4.22;;;17.60;99.90;;;;;;5041978;28;20447;-70
2023/07/28 03:47:29;;;;;;;10.23;3.80;;;17.60;99.90;;;;;;5044222;28;20072;-70
2023/07/28 03:49:54;;;;;;;9.57;4.57;;;17.60;99.90;;;;;;5042654;28;20457;-70
2023/07/28 03:52:20;;;;;;;12.50;4.20;;;17.60;99.90;;;;;;5041203;28;20283;-70
2023/07/28 03:54:45;;;;;;;7.93;4.53;;;17.60;99.90;;;;;;5038818;28;20036;-70
2023/07/28 03:57:11;;;;;;;14.55;5.15;;;17.70;99.90;;;;;;5051251;28;20040;-70
2023/07/28 03:59:37;;;;;;;15.23;4.10;;;17.60;99.90;;;;;;5036464;28;20040;-70
2023/07/28 04:02:02;;;;;;;12.85;4.85;;;17.60;99.90;;;;;;5038593;28;20041;-70
2023/07/28 04:04:28;;;;;;;12.00;4.55;;;17.60;99.90;;;;;;5036205;28;20052;-70
2023/07/28 04:06:53;;;;;;;9.73;4.10;;;17.70;99.90;;;;;;5052515;28;20075;-70
2023/07/28 04:09:20;;;;;;;9.85;4.78;;;17.60;99.90;;;;;;5036728;28;20107;-70
2023/07/28 04:11:45;;;;;;;10.80;4.28;;;17.70;99.90;;;;;;5040183;28;20049;-70
2023/07/28 04:14:11;;;;;;;12.57;4.32;;;17.60;99.90;;;;;;5040676;28;20494;-70
2023/07/28 04:16:37;;;;;;;9.50;4.07;;;17.60;99.90;;;;;;5038785;28;20052;-70
2023/07/28 04:19:03;;;;;;;12.77;4.57;;;17.70;99.90;;;;;;5036874;28;20037;-70
2023/07/28 04:21:28;;;;;;;13.70;4.82;;;17.60;99.90;;;;;;5039973;28;20040;-70
2023/07/28 04:23:54;;;;;;;8.98;4.05;;;17.60;99.90;;;;;;5037932;28;20072;-70
2023/07/28 04:26:19;;;;;;;6.93;3.35;;;17.60;99.90;;;;;;5039473;28;20123;-70
2023/07/28 04:28:45;;;;;;;8.82;4.13;;;17.70;99.90;;;;;;5038860;28;20227;-70
2023/07/28 04:31:11;;;;;;;12.88;4.07;;;17.70;99.90;;;;;;5041709;28;20442;-70
2023/07/28 04:33:40;;;;;;;9.45;4.28;;;17.70;99.90;;;;;;5039960;28;20048;-70
2023/07/28 04:36:06;;;;;;;12.63;4.07;;;17.70;99.90;;;;;;5020520;28;20049;-70
2023/07/28 04:38:31;;;;;;;11.43;3.88;;;17.70;99.90;;;;;;5037830;28;20041;-70
2023/07/28 04:40:57;;;;;;;13.15;4.90;;;17.80;99.90;;;;;;5068618;28;20043;-70
2023/07/28 04:43:23;;;;;;;14.30;4.00;;;17.70;99.90;;;;;;5040337;28;20040;-70
2023/07/28 04:45:48;;;;;;;8.38;4.00;;;17.70;99.90;;;;;;5069450;28;20507;-70
2023/07/28 04:48:14;;;;;;;13.77;4.78;;;17.80;99.90;;;;;;5039643;28;20115;-70
2023/07/28 04:50:39;;;;;;;8.48;3.80;;;17.80;99.90;;;;;;5068561;28;20044;-70
2023/07/28 04:53:05;;;;;;;8.77;3.75;;;17.70;99.90;;;;;;5037869;28;20044;-70
2023/07/28 04:55:31;;;;;;;9.38;4.60;;;17.70;99.90;;;;;;5035173;28;20052;-70
2023/07/28 04:57:56;;;;;;;10.75;4.40;;;17.80;99.90;;;;;;5017585;28;20033;-70
2023/07/28 05:00:23;;;;;;;10.70;4.68;;;17.70;99.90;;;;;;5037063;28;20098;-70
2023/07/28 05:02:49;;;;;;;9.52;3.70;;;17.80;99.90;;;;;;5036326;28;20123;-70
2023/07/28 05:05:14;;;;;;;8.07;4.35;;;17.80;99.90;;;;;;5037436;28;20390;-70
2023/07/28 05:07:40;;;;;;;8.85;4.10;;;17.80;99.90;;;;;;5072161;28;20037;-70
2023/07/28 05:10:06;;;;;;;6.97;3.67;;;17.80;99.90;;;;;;5038603;28;20029;-70
2023/07/28 05:12:32;;;;;;;8.30;3.30;;;17.80;99.90;;;;;;5039234;28;20439;-70
2023/07/28 05:14:57;;;;;;;9.65;3.95;;;17.80;99.90;;;;;;5036965;28;20047;-70
2023/07/28 05:17:23;;;;;;;7.30;3.95;;;17.80;99.90;;;;;;5038927;28;20550;-70
2023/07/28 05:19:50;;;;;;;12.63;4.63;;;17.80;99.90;;;;;;5038417;28;20045;-70
2023/07/28 05:22:16;;;;;;;10.25;4.22;;;17.90;99.90;;;;;;5039170;28;20043;-70
2023/07/28 05:24:42;;;;;;;14.55;4.45;;;17.90;99.90;;;;;;5038858;28;20434;-70
2023/07/28 05:27:08;;;;;;;9.10;4.00;;;17.90;99.90;;;;;;5038707;28;22745;-70
2023/07/28 05:29:33;;;;;;;11.23;4.18;;;17.90;99.90;;;;;;5070121;28;20098;-70
2023/07/28 05:32:02;;;;;;;9.88;3.90;;;17.90;99.90;;;;;;5039431;28;20120;-70
2023/07/28 05:34:27;;;;;;;12.63;4.18;;;17.90;99.90;;;;;;5069907;28;20061;-70
2023/07/28 05:36:53;;;;;;;8.85;4.25;;;17.90;99.90;;;;;;5072228;28;20459;-70
2023/07/28 05:39:19;;;;;;;9.88;3.67;;;18.00;99.90;;;;;;5040926;28;20037;-70
2023/07/28 05:41:44;;;;;;;10.80;4.15;;;17.90;99.90;;;;;;5035335;28;20067;-70
2023/07/28 05:44:10;;;;;;;11.80;3.95;;;17.90;99.90;;;;;;5038135;28;20102;-70
2023/07/28 05:46:35;;;;;;;10.70;4.20;;;17.90;99.90;;;;;;5040469;28;20128;-70
2023/07/28 05:49:01;;;;;;;9.55;4.60;;;18.00;99.90;;;;;;5041168;28;20041;-70
2023/07/28 05:51:27;;;;;;;8.88;4.15;;;18.00;99.90;;;;;;5043031;28;20083;-70
2023/07/28 05:53:52;;;;;;;10.43;4.22;;;18.00;99.90;;;;;;5037086;28;20044;-70
2023/07/28 05:56:18;;;;;;;10.75;4.60;;;17.90;99.90;;;;;;5038594;28;20059;-70
2023/07/28 05:58:47;;;;;;;10.20;4.95;;;18.00;99.90;;;;;;5037860;28;20132;-70
2023/07/28 06:01:13;;;;;;;11.57;4.60;;;18.00;99.90;;;;;;5037125;28;20483;-70
2023/07/28 06:03:39;;;;;;;9.73;4.25;;;18.00;99.90;;;;;;5066423;28;20037;-70
2023/07/28 06:06:05;;;;;;;9.82;4.32;;;18.00;99.90;;;;;;5033893;28;20037;-70
2023/07/28 06:08:30;;;;;;;10.35;4.25;;;18.00;99.90;;;;;;5038010;28;20044;-70
2023/07/28 06:10:56;;;;;;;8.80;4.10;;;18.00;99.90;;;;;;5038980;28;20190;-70
2023/07/28 06:13:21;;;;;;;10.02;4.72;;;18.10;99.90;;;;;;5035877;28;20072;-70
2023/07/28 06:15:47;;;;;;;10.35;3.97;;;18.00;99.90;;;;;;5042027;28;20107;-70
2023/07/28 06:18:13;;;;;;;10.40;4.32;;;18.00;99.90;;;;;;5044817;28;20033;-70
2023/07/28 06:20:45;;;;;;;12.02;4.45;;;18.00;99.90;;;;;;5043132;28;20044;-70
2023/07/28 06:23:10;;;;;;;9.13;4.53;;;18.10;99.90;;;;;;5040162;28;20569;-70
2023/07/28 06:25:38;;;;;;;11.90;4.93;;;18.10;99.90;;;;;;5040667;28;20047;-70
2023/07/28 06:28:03;;;;;;;11.50;5.00;;;18.10;99.90;;;;;;5042418;28;20552;-72
2023/07/28 06:30:30;;;;;;;8.57;4.05;;;18.10;99.90;;;;;;5023784;28;20048;-70
2023/07/28 06:32:56;;;;;;;10.50;4.95;;;18.10;99.90;;;;;;5021751;28;20041;-71
2023/07/28 06:35:22;;;;;;;7.32;4.07;;;18.10;99.90;;;;;;5055187;28;20181;-71
2023/07/28 06:37:48;;;;;;;11.10;4.60;;;18.10;99.90;;;;;;5042897;28;20043;-71
2023/07/28 06:40:14;;;;;;;8.10;3.70;;;18.10;99.90;;;;;;5072280;28;20041;-71
2023/07/28 06:42:40;;;;;;;9.68;3.67;;;18.20;99.90;;;;;;5038259;28;20567;-71
2023/07/28 06:45:06;;;;;;;8.77;4.13;;;18.20;99.90;;;;;;5043534;28;20048;-72
2023/07/28 06:47:31;;;;;;;9.80;3.83;;;18.30;99.90;;;;;;5040959;28;20087;-72
2023/07/28 06:49:57;;;;;;;5.78;3.20;;;18.20;99.90;;;;;;5070143;28;20045;-72
2023/07/28 06:52:22;;;;;;;9.43;3.53;;;18.30;99.90;;;;;;5045785;28;20044;-72
2023/07/28 06:54:49;;;;;;;8.52;3.20;;;18.30;99.90;;;;;;5038180;28;20048;-72
2023/07/28 06:57:15;;;;;;;9.65;3.80;;;18.40;99.90;;;;;;5031489;28;20052;-72
2023/07/28 06:59:41;;;;;;;12.13;4.03;;;18.40;99.90;;;;;;5042239;28;20150;-72
2023/07/28 07:02:07;;;;;;;8.23;4.07;;;18.50;99.90;;;;;;5040219;28;20037;-71
2023/07/28 07:04:32;;;;;;;7.65;3.63;;;18.50;99.90;;;;;;5039033;28;20045;-71
2023/07/28 07:06:58;;;;;;;13.18;3.55;;;18.60;99.90;;;;;;5043453;28;20040;-71
2023/07/28 07:09:24;;;;;;;7.95;3.65;;;18.60;99.90;;;;;;5073147;28;20041;-71
2023/07/28 07:11:50;;;;;;;5.95;3.60;;;18.70;99.90;;;;;;5043746;28;20061;-71
2023/07/28 07:14:16;;;;;;;6.25;3.35;;;18.70;99.90;;;;;;5033301;28;20506;-71
2023/07/28 07:16:42;;;;;;;5.88;2.70;;;18.70;99.90;;;;;;5076807;28;20042;-72
2023/07/28 07:19:08;;;;;;;7.50;2.72;;;18.70;99.90;;;;;;5044146;28;20574;-71
2023/07/28 07:21:34;;;;;;;5.20;2.70;;;18.70;99.90;;;;;;5039366;28;20037;-71
2023/07/28 07:24:00;;;;;;;7.03;2.63;;;18.80;99.90;;;;;;5045768;28;20043;-72
2023/07/28 07:26:25;;;;;;;5.70;2.55;;;18.80;99.90;;;;;;5076032;28;20073;-71
2023/07/28 07:28:51;;;;;;;7.22;2.70;;;18.80;99.90;;;;;;5045885;28;20041;-71
2023/07/28 07:31:17;;;;;;;6.43;3.00;;;18.90;99.90;;;;;;5045296;28;20040;-71
2023/07/28 07:33:42;;;;;;;4.32;2.67;;;19.00;99.90;;;;;;5074454;28;20578;-71
2023/07/28 07:36:16;;;;;;;7.50;3.17;;;19.10;99.90;;;;;;5043924;28;20045;-70
2023/07/28 07:38:41;;;;;;;7.53;2.47;;;19.10;99.90;;;;;;5036845;28;20478;-71
2023/07/28 07:41:10;;;;;;;7.65;2.78;;;19.20;99.90;;;;;;5072640;28;20063;-71
2023/07/28 07:43:36;;;;;;;6.03;3.00;;;19.20;99.90;;;;;;5044032;28;20051;-71
2023/07/28 07:46:02;;;;;;;5.43;3.20;;;19.30;99.90;;;;;;5045645;28;20405;-70
2023/07/28 07:48:27;;;;;;;6.68;3.15;;;19.40;99.90;;;;;;5071083;28;20044;-70
2023/07/28 07:50:53;;;;;;;8.48;3.10;;;19.40;99.90;;;;;;5042965;28;20041;-71
2023/07/28 07:53:18;;;;;;;6.35;2.88;;;19.40;99.90;;;;;;5039073;28;20148;-70
2023/07/28 07:55:44;;;;;;;6.60;2.78;;;19.50;99.90;;;;;;5039889;28;20094;-71
2023/07/28 07:58:10;;;;;;;6.35;3.35;;;19.50;99.90;;;;;;5041289;28;20118;-71
2023/07/28 08:00:37;;;;;;;4.75;2.78;;;19.60;99.90;;;;;;5048767;28;20065;-71
2023/07/28 08:03:04;;;;;;;8.20;2.80;;;19.60;99.90;;;;;;5031550;28;20064;-71
2023/07/28 08:05:30;;;;;;;6.82;3.03;;;19.70;99.90;;;;;;5044546;28;20183;-71
2023/07/28 08:07:56;;;;;;;6.10;2.70;;;19.70;99.90;;;;;;5038861;28;20032;-71
2023/07/28 08:10:22;;;;;;;4.78;3.13;;;19.70;99.90;;;;;;5038779;28;20419;-70
2023/07/28 08:12:48;;;;;;;8.60;2.97;;;19.70;99.90;;;;;;5043642;28;20478;-70
2023/07/28 08:15:13;;;;;;;8.52;3.35;;;19.80;99.90;;;;;;5025390;28;20121;-71
2023/07/28 08:17:39;;;;;;;7.97;3.10;;;19.70;99.90;;;;;;5036046;28;20398;-71
2023/07/28 08:20:07;;;;;;;6.93;3.38;;;19.80;99.90;;;;;;5043442;28;20102;-71
2023/07/28 08:22:32;;;;;;;6.28;3.17;;;19.80;99.90;;;;;;5026500;28;20086;-70
2023/07/28 08:24:58;;;;;;;4.88;3.10;;;19.90;99.90;;;;;;5043544;28;20057;-71
2023/07/28 08:27:24;;;;;;;4.97;3.10;;;19.90;99.90;;;;;;5039442;28;20056;-71
2023/07/28 08:29:49;;;;;;;5.03;2.83;;;20.00;99.90;;;;;;5040845;28;20052;-71
2023/07/28 08:32:15;;;;;;;5.32;2.90;;;20.00;99.90;;;;;;5038023;28;20061;-71
2023/07/28 08:34:41;;;;;;;5.95;2.70;;;20.10;99.90;;;;;;5039336;28;20064;-71
2023/07/28 08:37:07;;;;;;;6.05;3.05;;;20.10;99.90;;;;;;5039288;28;20048;-70
2023/07/28 08:39:33;;;;;;;5.32;3.30;;;20.20;99.90;;;;;;5038469;28;20112;-71
2023/07/28 08:42:02;;;;;;;7.50;3.17;;;20.30;99.90;;;;;;5042191;28;20334;-71
2023/07/28 08:44:33;;;;;;;6.97;3.35;;;20.30;99.90;;;;;;5071640;28;20032;-71
2023/07/28 08:47:00;;;;;;;6.30;3.63;;;20.40;99.90;;;;;;5036297;28;20560;-72
2023/07/28 08:49:26;;;;;;;5.47;3.22;;;20.40;99.90;;;;;;5053331;28;21674;-71
2023/07/28 08:51:57;;;;;;;6.55;3.20;;;20.40;99.90;;;;;;5033016;28;20131;-72
2023/07/28 08:54:22;;;;;;;5.70;2.88;;;20.30;99.90;;;;;;5067124;28;20060;-71
2023/07/28 08:56:48;;;;;;;6.53;3.00;;;20.30;99.90;;;;;;5036416;28;20049;-71
2023/07/28 08:59:25;;;;;;;6.63;3.33;;;20.30;99.90;;;;;;5038772;28;20037;-71
2023/07/28 09:01:55;;;;;;;6.05;3.35;;;20.40;99.90;;;;;;5051075;28;20048;-71
2023/07/28 09:04:22;;;;;;;4.35;2.88;;;20.40;99.90;;;;;;5068416;28;20037;-70
2023/07/28 09:06:49;;;;;;;4.93;3.13;;;20.40;99.90;;;;;;5040975;28;20642;-71
2023/07/28 09:09:15;;;;;;;5.70;3.33;;;20.40;99.90;;;;;;5039017;28;20116;-70
2023/07/28 09:12:00;;;;;;;7.68;3.40;;;20.50;99.90;;;;;;5035608;28;20486;-71
2023/07/28 09:14:26;;;;;;;6.53;3.20;;;20.50;99.90;;;;;;5039870;28;20059;-71
2023/07/28 09:16:53;;;;;;;5.63;3.50;;;20.50;99.90;;;;;;5042717;28;20033;-70
2023/07/28 09:19:20;;;;;;;7.03;3.25;;;20.50;99.90;;;;;;5043539;28;20143;-73
2023/07/28 09:21:58;;;;;;;6.80;3.38;;;20.50;99.90;;;;;;5051726;28;20560;-81
2023/07/28 09:24:33;;;;;;;5.70;3.45;;;20.60;99.90;;;;;;5034330;28;20120;-80
2023/07/28 09:27:00;;;;;;;5.80;3.33;;;20.60;99.90;;;;;;5072651;28;20675;-71
2023/07/28 09:29:30;;;;;;;5.43;3.28;;;20.60;99.90;;;;;;5020901;28;20085;-71
2023/07/28 09:32:04;;;;;;;10.13;3.65;;;20.60;99.90;;;;;;5068984;28;20062;-72
2023/07/28 09:34:30;;;;;;;7.80;3.88;;;20.60;99.90;;;;;;5037139;28;20059;-72
2023/07/28 09:36:57;;;;;;;4.80;2.72;;;20.60;99.90;;;;;;5034602;28;20707;-72
2023/07/28 09:39:23;;;;;;;23.20;7.18;;;20.60;99.90;;;;;;5039336;28;20078;-72
2023/07/28 09:41:49;;;;;;;8.32;3.03;;;20.60;99.90;;;;;;5035535;28;20044;-71
2023/07/28 09:44:16;;;;;;;4.45;2.67;;;20.50;99.90;;;;;;5037430;28;20029;-72
2023/07/28 09:46:53;;;;;;;4.43;2.20;;;20.40;99.90;;;;;;5069757;28;20426;-72
2023/07/28 09:49:28;;;;;;;6.80;2.72;;;20.40;99.90;;;;;;5043720;28;20037;-72
2023/07/28 09:51:57;;;;;;;5.22;2.90;;;20.40;99.90;;;;;;5038632;28;20045;-72
2023/07/28 09:54:33;;;;;;;4.85;2.30;;;20.50;99.90;;;;;;5035401;28;20040;-71
2023/07/28 09:56:59;;;;;;;4.95;2.60;;;20.60;99.90;;;;;;5040045;28;20049;-71
2023/07/28 09:59:41;;;;;;;5.05;2.20;;;20.60;99.90;;;;;;5023698;28;20036;-72
2023/07/28 10:02:09;;;;;;;4.43;2.30;;;20.70;99.90;;;;;;5071576;28;20029;-71
2023/07/28 10:04:35;;;;;;;4.40;2.10;;;20.70;99.90;;;;;;5039899;28;20098;-72
2023/07/28 10:07:03;;;;;;;3.50;2.05;;;20.80;99.90;;;;;;5022461;28;20069;-71
2023/07/28 10:09:31;;;;;;;5.40;2.03;;;20.90;99.90;;;;;;5065320;28;20498;-72
2023/07/28 10:11:56;;;;;;;3.80;1.90;;;21.00;99.90;;;;;;5051196;28;20045;-71
2023/07/28 10:14:37;;;;;;;6.90;1.90;;;21.10;99.90;;;;;;5040284;28;20140;-71
2023/07/28 10:17:04;;;;;;;3.20;1.92;;;21.10;99.90;;;;;;5034845;28;21590;-72
2023/07/28 10:19:34;;;;;;;5.13;2.20;;;21.10;99.90;;;;;;5036842;28;20115;-73
2023/07/28 10:22:08;;;;;;;3.63;1.73;;;21.10;99.90;;;;;;5042463;28;20158;-73
2023/07/28 10:24:53;;;;;;;3.75;2.00;;;21.10;99.90;;;;;;5037803;28;20049;-73
2023/07/28 10:27:36;;;;;;;4.50;1.97;;;21.10;99.90;;;;;;5037380;28;20709;-73
2023/07/28 10:30:04;;;;;;;4.85;2.15;;;21.10;99.90;;;;;;5065266;28;20044;-72
2023/07/28 10:32:38;;;;;;;3.78;2.00;;;21.10;99.90;;;;;;5041786;28;20044;-72
2023/07/28 10:35:13;;;;;;;3.90;2.17;;;21.00;99.90;;;;;;5039209;28;20491;-72
2023/07/28 10:37:43;;;;;;;4.03;2.13;;;21.10;99.90;;;;;;5017780;28;20037;-72
2023/07/28 10:40:28;;;;;;;3.65;2.55;;;21.00;99.90;;;;;;5019870;28;20548;-72
2023/07/28 10:42:54;;;;;;;3.25;2.28;;;21.00;99.90;;;;;;5036858;28;20116;-72
2023/07/28 10:45:25;;;;;;;4.72;2.55;;;21.00;99.90;;;;;;5043085;28;20040;-72
2023/07/28 10:47:52;;;;;;;4.63;2.38;;;21.10;99.90;;;;;;5040663;28;20029;-72
2023/07/28 10:50:18;;;;;;;4.22;2.30;;;21.10;99.90;;;;;;5039747;28;20529;-72
2023/07/28 10:52:45;;;;;;;3.78;2.15;;;21.10;99.90;;;;;;5037700;28;20048;-72
2023/07/28 10:55:14;;;;;;;6.47;2.10;;;21.10;99.90;;;;;;5039525;28;20045;-72
2023/07/28 10:57:48;;;;;;;4.88;2.45;;;21.10;99.90;;;;;;5066770;28;20044;-72
2023/07/28 11:00:16;;;;;;;3.63;2.00;;;21.20;99.90;;;;;;5055374;28;20617;-72
2023/07/28 11:02:46;;;;;;;5.38;2.10;;;21.20;99.90;;;;;;5040437;28;20037;-72
2023/07/28 11:05:23;;;;;;;3.53;2.40;;;21.20;99.90;;;;;;5037708;28;20064;-72
2023/07/28 11:07:54;;;;;;;6.00;2.72;;;21.20;99.90;;;;;;5040236;28;20051;-71
2023/07/28 11:10:20;;;;;;;4.60;2.20;;;21.20;99.90;;;;;;5053445;28;20045;-73
2023/07/28 11:12:48;;;;;;;4.40;2.38;;;21.30;99.90;;;;;;5075953;28;20399;-72
2023/07/28 11:15:15;;;;;;;4.68;2.00;;;21.30;99.90;;;;;;5055635;28;20068;-72
2023/07/28 11:17:44;;;;;;;4.18;2.50;;;21.30;99.90;;;;;;5044584;28;20690;-72
2023/07/28 11:20:19;;;;;;;3.90;2.33;;;21.40;99.90;;;;;;5038660;28;20041;-73
2023/07/28 11:22:52;;;;;;;3.05;2.03;;;21.40;99.90;;;;;;5071688;28;20045;-72
2023/07/28 11:25:18;;;;;;;4.05;2.35;;;21.30;99.90;;;;;;5069467;28;20044;-72
2023/07/28 11:27:46;;;;;;;4.10;2.60;;;21.30;99.90;;;;;;5039527;28;20068;-72
2023/07/28 11:30:13;;;;;;;6.15;2.75;;;21.40;99.90;;;;;;5021660;28;21421;-72
2023/07/28 11:32:39;;;;;;;4.82;2.38;;;21.50;99.90;;;;;;5039389;28;20840;-71
2023/07/28 11:35:09;;;;;;;3.70;2.10;;;21.50;99.90;;;;;;5039578;28;20037;-72
2023/07/28 11:37:36;;;;;;;2.97;1.95;;;21.60;99.90;;;;;;5069714;28;20075;-72
2023/07/28 11:40:06;;;;;;;5.45;2.35;;;21.70;99.90;;;;;;5039686;28;20037;-73
2023/07/28 11:42:39;;;;;;;3.70;1.90;;;21.60;99.90;;;;;;5040290;28;20033;-72
2023/07/28 11:45:05;;;;;;;10.27;2.92;;;21.60;99.90;;;;;;5067794;28;20047;-72
2023/07/28 11:47:31;;;;;;;4.53;2.47;;;21.60;99.90;;;;;;5073038;28;20047;-72
2023/07/28 11:50:00;;;;;;;4.60;2.90;;;21.60;99.90;;;;;;5043251;28;20398;-72
2023/07/28 11:52:34;;;;;;;4.97;2.67;;;21.60;99.90;;;;;;5024127;28;20537;-73
2023/07/28 11:55:01;;;;;;;5.60;3.00;;;21.50;99.90;;;;;;5036111;28;20029;-73
2023/07/28 11:57:30;;;;;;;3.95;2.55;;;21.40;99.90;;;;;;5038979;28;20406;-73
2023/07/28 11:59:56;;;;;;;5.28;3.25;;;21.40;99.90;;;;;;5074273;28;20041;-73
2023/07/28 12:02:31;;;;;;;5.57;3.10;;;21.40;99.90;;;;;;5035917;28;20033;-73
2023/07/28 12:04:58;;;;;;;5.00;3.23;;;21.40;99.90;;;;;;5035625;28;20037;-73
2023/07/28 12:07:31;;;;;;;6.55;3.45;;;21.50;99.90;;;;;;5066141;28;20295;-73
2023/07/28 12:10:02;;;;;;;5.57;3.33;;;21.60;99.90;;;;;;5054004;28;20044;-73
2023/07/28 12:12:29;;;;;;;7.00;4.15;;;21.60;99.90;;;;;;5041857;28;20041;-72
2023/07/28 12:14:58;;;;;;;10.38;4.10;;;21.70;99.90;;;;;;5039538;28;20052;-73
2023/07/28 12:17:27;;;;;;;7.75;4.47;;;21.80;99.90;;;;;;5065714;28;20049;-73
2023/07/28 12:20:15;;;;;;;9.40;4.18;;;21.90;99.90;;;;;;5038492;28;20478;-73
2023/07/28 12:22:45;;;;;;;9.80;4.88;;;21.90;99.90;;;;;;5066616;28;20041;-73
2023/07/28 12:25:11;;;;;;;9.50;4.70;;;22.00;99.90;;;;;;5068573;28;20390;-73
2023/07/28 12:27:37;;;;;;;12.65;4.55;;;21.90;99.90;;;;;;5038869;28;22359;-73
2023/07/28 12:30:04;;;;;;;7.95;4.18;;;21.80;99.90;;;;;;5039211;28;20588;-73
2023/07/28 12:32:30;;;;;;;7.30;4.25;;;21.80;99.90;;;;;;5039414;28;20088;-73
2023/07/28 12:34:55;;;;;;;9.98;4.03;;;21.90;99.90;;;;;;5035710;28;20798;-73
2023/07/28 12:37:21;;;;;;;8.15;4.57;;;22.00;99.90;;;;;;5038434;28;20049;-72
2023/07/28 12:39:48;;;;;;;6.50;3.88;;;22.10;99.90;;;;;;5037691;28;20041;-73
2023/07/28 12:42:14;;;;;;;6.93;3.22;;;22.20;99.90;;;;;;5070787;28;20058;-73
2023/07/28 12:44:42;;;;;;;5.55;3.53;;;22.20;99.90;;;;;;5038999;28;20037;-73